Upstream stations:
Downstream station:
SHEF ID: BRIO2 Canadian River at Bridgeport, OK
STATION TYPE:
Regulating: Stage = 15.00, Flow = 8545
STAGE RIV-FLOW
ft cfs
Ccp-Rev Ccp-Rev
(US/Central)
06/08 00:00 12.60 2190
06/08 01:00 13.94 4918
06/08 02:00 ---- ----
06/08 03:00 ---- ----
06/08 04:00 12.55 2117
06/08 05:00 12.54 2103
06/08 06:00 12.53 2089
06/08 07:00 12.51 2060
06/08 08:00 12.50 2046
06/08 09:00 12.48 2018
06/08 10:00 12.52 2074
06/08 11:00 12.82 2532
06/08 12:00 13.14 3092
06/08 13:00 13.15 3111
06/08 14:00 13.10 3018
06/08 15:00 13.00 2838
06/08 16:00 12.93 2716
06/08 17:00 12.90 2665
06/08 18:00 12.87 2615
06/08 19:00 12.83 2548
06/08 20:00 12.70 2341
06/08 21:00 12.65 2265
06/08 22:00 15.18 9324
06/08 23:00 ---- ----